Time;durP1;ratioP1;P1;durP2;ratioP2;P2;SDS_P1;SDS_P2;PMS_P1;PMS_P2;Temp;Humidity;BMP_temperature;BMP_pressure;BME280_temperature;BME280_humidity;BME280_pressure;Samples;Min_cycle;Max_cycle;Signal;HPM_P1;HPM_P2
2023/04/04 00:01:59;;;;;;;2.03;1.02;;;2.00;98.90;;;;;;5037264;28;20412;-64
2023/04/04 00:04:28;;;;;;;3.95;1.40;;;2.00;98.90;;;;;;4998813;28;1136722;-64
2023/04/04 00:06:54;;;;;;;3.72;1.30;;;2.00;98.90;;;;;;5038465;28;20481;-64
2023/04/04 00:09:20;;;;;;;6.78;1.60;;;2.00;98.80;;;;;;5039285;28;20048;-64
2023/04/04 00:11:46;;;;;;;3.10;1.33;;;1.90;98.90;;;;;;5035779;28;20044;-64
2023/04/04 00:14:12;;;;;;;3.05;1.20;;;1.90;99.00;;;;;;5038883;28;20037;-64
2023/04/04 00:16:38;;;;;;;3.75;1.20;;;1.90;99.00;;;;;;5038314;28;20032;-64
2023/04/04 00:19:03;;;;;;;4.63;1.23;;;1.90;99.00;;;;;;5039207;28;20063;-64
2023/04/04 00:21:29;;;;;;;6.60;1.10;;;1.90;98.90;;;;;;5034047;28;20108;-64
2023/04/04 00:23:58;;;;;;;5.15;1.38;;;1.80;99.00;;;;;;5035085;28;20572;-64
2023/04/04 00:26:25;;;;;;;8.13;1.75;;;1.80;99.00;;;;;;5037596;28;20033;-64
2023/04/04 00:28:51;;;;;;;5.63;1.10;;;1.80;99.10;;;;;;5030409;28;20030;-64
2023/04/04 00:31:18;;;;;;;3.42;0.90;;;1.80;99.00;;;;;;5029286;28;20036;-64
2023/04/04 00:33:44;;;;;;;6.13;1.77;;;1.80;99.10;;;;;;5034857;28;20029;-63
2023/04/04 00:36:10;;;;;;;3.85;1.27;;;1.80;99.10;;;;;;5036462;28;20039;-64
2023/04/04 00:38:36;;;;;;;5.20;1.00;;;1.70;99.10;;;;;;5033159;28;20178;-63
2023/04/04 00:41:02;;;;;;;4.28;1.23;;;1.70;99.20;;;;;;5037848;28;20029;-63
2023/04/04 00:43:28;;;;;;;1.98;1.13;;;1.70;99.10;;;;;;5036202;28;20084;-64
2023/04/04 00:45:55;;;;;;;4.50;1.10;;;1.70;99.20;;;;;;5026979;28;20049;-63
2023/04/04 00:48:23;;;;;;;4.70;1.05;;;1.70;99.30;;;;;;5030111;28;20060;-64
2023/04/04 00:50:48;;;;;;;7.82;1.58;;;1.60;99.30;;;;;;5035401;28;20057;-64
2023/04/04 00:53:14;;;;;;;4.18;0.80;;;1.60;99.30;;;;;;5038049;28;20116;-64
2023/04/04 00:55:42;;;;;;;3.13;1.20;;;1.60;99.40;;;;;;5028672;28;20832;-64
2023/04/04 00:58:08;;;;;;;1.98;0.90;;;1.60;99.40;;;;;;5037547;28;20032;-64
2023/04/04 01:00:35;;;;;;;3.45;1.13;;;1.70;99.20;;;;;;5034191;28;20764;-64
2023/04/04 01:03:02;;;;;;;4.95;1.65;;;1.80;99.10;;;;;;5036183;28;20037;-64
2023/04/04 01:05:30;;;;;;;5.70;1.75;;;1.90;98.80;;;;;;5037381;28;20677;-64
2023/04/04 01:07:56;;;;;;;3.40;1.30;;;2.00;98.50;;;;;;5036574;28;20036;-64
2023/04/04 01:10:22;;;;;;;4.43;1.38;;;2.00;98.40;;;;;;5036149;28;20124;-64
2023/04/04 01:12:49;;;;;;;2.97;1.38;;;2.00;98.30;;;;;;5036974;28;20029;-64
2023/04/04 01:15:16;;;;;;;5.32;1.27;;;2.00;98.20;;;;;;5035421;28;20033;-64
2023/04/04 01:17:43;;;;;;;4.10;1.23;;;2.00;98.10;;;;;;5037758;28;20033;-64
2023/04/04 01:20:13;;;;;;;3.30;1.48;;;2.00;98.00;;;;;;5034209;28;20029;-64
2023/04/04 01:22:48;;;;;;;4.10;1.20;;;2.00;98.00;;;;;;5024759;28;20033;-64
2023/04/04 01:25:16;;;;;;;3.10;1.25;;;2.00;97.80;;;;;;5030591;28;20029;-64
2023/04/04 01:27:46;;;;;;;5.75;1.40;;;2.00;97.70;;;;;;5020312;28;20029;-64
2023/04/04 01:30:16;;;;;;;2.05;0.93;;;2.00;97.70;;;;;;5027948;28;20536;-64
2023/04/04 01:32:49;;;;;;;2.35;1.20;;;2.00;97.80;;;;;;5035989;28;20045;-64
2023/04/04 01:35:32;;;;;;;7.35;1.75;;;1.90;97.80;;;;;;5034121;28;20041;-64
2023/04/04 01:38:22;;;;;;;7.60;1.20;;;1.90;97.90;;;;;;5037610;28;20075;-64
2023/04/04 01:40:51;;;;;;;3.42;1.48;;;1.90;98.00;;;;;;5036858;28;20025;-64
2023/04/04 01:43:18;;;;;;;3.60;1.00;;;1.80;97.80;;;;;;5024928;28;20119;-64
2023/04/04 01:45:45;;;;;;;2.20;1.00;;;1.80;98.10;;;;;;5025117;28;20033;-64
2023/04/04 01:48:15;;;;;;;2.40;1.10;;;1.70;98.00;;;;;;5031471;28;20037;-64
2023/04/04 01:50:41;;;;;;;2.30;1.10;;;1.70;98.20;;;;;;5028118;28;20699;-65
2023/04/04 01:53:08;;;;;;;2.85;1.00;;;1.70;98.10;;;;;;5028728;28;20037;-65
2023/04/04 01:55:35;;;;;;;4.22;1.30;;;1.70;98.10;;;;;;5036761;28;20112;-64
2023/04/04 01:58:01;;;;;;;3.80;1.48;;;1.60;98.20;;;;;;5036751;28;20552;-65
2023/04/04 02:00:29;;;;;;;5.10;1.67;;;1.60;98.30;;;;;;5035632;28;20070;-65
2023/04/04 02:02:55;;;;;;;6.80;1.30;;;1.60;98.30;;;;;;5038527;28;20536;-64
2023/04/04 02:05:21;;;;;;;4.00;1.30;;;1.50;98.30;;;;;;5038677;28;20044;-65
2023/04/04 02:07:48;;;;;;;4.70;1.20;;;1.50;98.40;;;;;;5025064;28;20037;-65
2023/04/04 02:10:23;;;;;;;5.05;1.40;;;1.50;98.60;;;;;;5036961;28;20032;-64
2023/04/04 02:12:52;;;;;;;1.60;0.95;;;1.40;98.60;;;;;;5026596;28;20552;-65
2023/04/04 02:15:21;;;;;;;2.22;1.00;;;1.40;98.80;;;;;;5029739;28;20033;-65
2023/04/04 02:17:48;;;;;;;4.50;1.42;;;1.30;98.80;;;;;;5036856;28;20036;-65
2023/04/04 02:20:14;;;;;;;3.00;1.17;;;1.20;98.90;;;;;;5020233;28;20056;-64
2023/04/04 02:22:40;;;;;;;6.10;1.42;;;1.20;99.00;;;;;;5037554;28;20056;-64
2023/04/04 02:25:06;;;;;;;8.10;1.02;;;1.20;99.10;;;;;;5038168;28;20396;-64
2023/04/04 02:27:32;;;;;;;3.60;1.23;;;1.10;99.20;;;;;;5037848;28;20735;-64
2023/04/04 02:30:00;;;;;;;3.45;1.10;;;1.10;99.30;;;;;;5031369;28;20928;-64
2023/04/04 02:32:26;;;;;;;5.07;1.10;;;1.10;99.30;;;;;;5035037;28;20033;-64
2023/04/04 02:34:52;;;;;;;5.30;1.25;;;1.00;99.20;;;;;;5036223;28;20852;-65
2023/04/04 02:37:18;;;;;;;1.60;1.05;;;1.00;99.20;;;;;;5029969;28;20063;-64
2023/04/04 02:39:45;;;;;;;5.00;1.35;;;1.00;99.40;;;;;;5037063;28;20460;-65
2023/04/04 02:42:11;;;;;;;3.53;1.23;;;0.90;99.30;;;;;;5031786;28;20024;-64
2023/04/04 02:44:37;;;;;;;2.90;1.17;;;0.90;99.40;;;;;;5033841;28;20898;-65
2023/04/04 02:47:06;;;;;;;3.90;1.38;;;0.90;99.60;;;;;;5036119;28;20409;-65
2023/04/04 02:49:32;;;;;;;3.35;1.20;;;0.80;99.60;;;;;;5034050;28;20044;-64
2023/04/04 02:51:58;;;;;;;3.00;1.13;;;0.80;99.60;;;;;;5034373;28;20032;-64
2023/04/04 02:54:28;;;;;;;4.38;1.38;;;0.80;99.90;;;;;;5037115;28;20029;-65
2023/04/04 02:56:54;;;;;;;7.60;1.73;;;0.70;99.90;;;;;;5037391;28;20036;-64
2023/04/04 02:59:20;;;;;;;4.70;1.00;;;0.70;99.90;;;;;;5041989;28;20032;-65
2023/04/04 03:01:47;;;;;;;4.00;1.25;;;0.70;99.90;;;;;;5040879;28;20021;-65
2023/04/04 03:04:13;;;;;;;5.10;1.20;;;0.70;99.90;;;;;;5042705;28;20139;-64
2023/04/04 03:06:41;;;;;;;4.47;1.70;;;0.70;99.90;;;;;;5043491;28;20031;-65
2023/04/04 03:09:06;;;;;;;3.70;1.35;;;0.70;99.90;;;;;;5043599;28;20389;-65
2023/04/04 03:11:32;;;;;;;3.28;1.33;;;0.60;99.90;;;;;;5042449;28;20029;-64
2023/04/04 03:13:58;;;;;;;8.60;2.07;;;0.60;99.90;;;;;;5043861;28;20043;-64
2023/04/04 03:16:32;;;;;;;6.60;1.73;;;0.60;99.90;;;;;;5044397;28;20108;-64
2023/04/04 03:18:58;;;;;;;8.20;1.67;;;0.60;99.90;;;;;;5035218;28;20029;-64
2023/04/04 03:21:25;;;;;;;3.90;1.38;;;0.60;99.90;;;;;;5038793;28;20025;-65
2023/04/04 03:23:51;;;;;;;4.32;1.77;;;0.50;99.90;;;;;;5034979;28;20059;-64
2023/04/04 03:26:18;;;;;;;4.18;1.77;;;0.50;99.90;;;;;;5031786;28;20025;-64
2023/04/04 03:28:44;;;;;;;12.18;1.50;;;0.50;99.90;;;;;;5034128;28;20698;-64
2023/04/04 03:31:11;;;;;;;4.82;1.38;;;0.50;99.90;;;;;;5038082;28;20493;-65
2023/04/04 03:33:41;;;;;;;5.85;1.38;;;0.50;99.90;;;;;;5038086;28;20048;-64
2023/04/04 03:36:11;;;;;;;6.80;1.60;;;0.50;99.90;;;;;;5031122;28;20033;-65
2023/04/04 03:38:37;;;;;;;4.38;1.45;;;0.40;99.90;;;;;;5039279;28;20037;-65
2023/04/04 03:41:04;;;;;;;5.68;1.38;;;0.40;99.90;;;;;;5041548;28;20029;-65
2023/04/04 03:43:34;;;;;;;5.30;1.23;;;0.40;99.90;;;;;;5038182;28;20021;-65
2023/04/04 03:46:01;;;;;;;3.53;1.50;;;0.40;99.90;;;;;;5039348;28;20033;-64
2023/04/04 03:48:29;;;;;;;9.05;1.98;;;0.30;99.90;;;;;;5041037;28;20493;-65
2023/04/04 03:50:56;;;;;;;4.63;1.38;;;0.30;99.90;;;;;;5038220;28;20029;-65
2023/04/04 03:53:23;;;;;;;4.47;1.48;;;0.30;99.90;;;;;;5040046;28;20044;-65
2023/04/04 03:55:49;;;;;;;7.40;1.13;;;0.30;99.90;;;;;;5038630;28;20029;-65
2023/04/04 03:58:16;;;;;;;7.60;1.48;;;0.30;99.90;;;;;;5033486;28;20067;-65
2023/04/04 04:00:41;;;;;;;2.25;1.27;;;0.30;99.90;;;;;;5039115;28;20061;-65
2023/04/04 04:03:07;;;;;;;2.30;1.58;;;0.20;99.90;;;;;;5038513;28;20024;-65
2023/04/04 04:05:33;;;;;;;6.82;1.42;;;0.20;99.90;;;;;;5042456;28;20119;-64
2023/04/04 04:07:59;;;;;;;3.38;1.35;;;0.20;99.90;;;;;;5039165;28;20363;-65
2023/04/04 04:10:26;;;;;;;5.18;1.67;;;0.20;99.90;;;;;;5040581;28;20032;-65
2023/04/04 04:12:51;;;;;;;5.80;1.55;;;0.20;99.90;;;;;;5038014;28;20800;-65
2023/04/04 04:15:17;;;;;;;3.03;1.45;;;0.20;99.90;;;;;;5036607;28;20033;-65
2023/04/04 04:17:44;;;;;;;4.22;1.38;;;0.10;99.90;;;;;;5034700;28;20035;-65
2023/04/04 04:20:11;;;;;;;4.00;1.65;;;0.10;99.90;;;;;;5045871;28;20033;-65
2023/04/04 04:22:46;;;;;;;3.47;1.50;;;0.10;99.90;;;;;;5038675;28;20036;-65
2023/04/04 04:25:13;;;;;;;6.03;1.83;;;0.10;99.90;;;;;;5036086;28;20052;-64
2023/04/04 04:27:41;;;;;;;4.43;1.65;;;0.10;99.90;;;;;;5033595;28;20880;-65
2023/04/04 04:30:08;;;;;;;5.75;1.58;;;0.00;99.90;;;;;;5037082;28;20033;-65
2023/04/04 04:32:40;;;;;;;4.07;1.38;;;0.00;99.90;;;;;;5033619;28;20036;-65
2023/04/04 04:35:08;;;;;;;4.95;1.58;;;0.00;99.90;;;;;;5041374;28;20033;-65
2023/04/04 04:37:36;;;;;;;2.50;1.23;;;0.00;99.90;;;;;;5034501;28;20083;-65
2023/04/04 04:40:04;;;;;;;3.95;1.80;;;0.00;99.90;;;;;;5031531;28;20031;-65
2023/04/04 04:42:45;;;;;;;5.22;1.30;;;0.00;99.90;;;;;;5036778;28;20116;-65
2023/04/04 04:45:12;;;;;;;5.05;1.33;;;0.00;99.90;;;;;;5029383;28;20923;-65
2023/04/04 04:47:43;;;;;;;2.45;1.30;;;0.00;99.90;;;;;;5037728;28;20039;-65
2023/04/04 04:50:11;;;;;;;3.88;1.67;;;0.00;99.90;;;;;;5036040;28;20032;-65
2023/04/04 04:52:43;;;;;;;1.42;1.23;;;0.00;99.90;;;;;;5032589;28;20044;-65
2023/04/04 04:55:10;;;;;;;2.88;1.40;;;0.00;99.90;;;;;;5032129;28;20043;-65
2023/04/04 04:57:41;;;;;;;4.32;1.38;;;0.00;99.90;;;;;;5038723;28;20670;-65
2023/04/04 05:00:14;;;;;;;9.10;2.03;;;0.00;99.90;;;;;;5039748;28;20775;-65
2023/04/04 05:02:42;;;;;;;4.63;1.30;;;0.00;99.90;;;;;;5038382;28;20033;-65
2023/04/04 05:05:11;;;;;;;3.58;1.48;;;0.00;99.90;;;;;;5038676;28;20048;-65
2023/04/04 05:07:36;;;;;;;3.38;1.35;;;0.00;99.90;;;;;;5033958;28;20037;-64
2023/04/04 05:10:04;;;;;;;2.67;1.35;;;0.10;99.90;;;;;;5037273;28;20549;-65
2023/04/04 05:12:30;;;;;;;3.65;1.60;;;0.10;99.90;;;;;;5039070;28;20078;-65
2023/04/04 05:14:56;;;;;;;5.15;2.03;;;0.10;99.90;;;;;;5032255;28;20028;-64
2023/04/04 05:17:23;;;;;;;6.68;1.90;;;0.10;99.90;;;;;;5030448;28;20029;-65
2023/04/04 05:19:51;;;;;;;3.40;1.33;;;0.10;99.90;;;;;;5040040;28;20025;-65
2023/04/04 05:22:20;;;;;;;3.25;1.90;;;0.20;99.90;;;;;;5036467;28;20033;-65
2023/04/04 05:24:50;;;;;;;4.05;1.38;;;0.20;99.90;;;;;;5036296;28;20338;-65
2023/04/04 05:27:20;;;;;;;5.20;1.90;;;0.20;99.90;;;;;;5036375;28;20437;-65
2023/04/04 05:29:52;;;;;;;3.40;1.58;;;0.20;99.90;;;;;;5033596;28;20115;-65
2023/04/04 05:32:20;;;;;;;3.78;2.00;;;0.20;99.90;;;;;;5036909;28;20086;-65
2023/04/04 05:34:54;;;;;;;6.22;2.08;;;0.30;99.90;;;;;;5036382;28;20060;-65
2023/04/04 05:37:21;;;;;;;3.88;2.05;;;0.30;99.90;;;;;;5026763;28;20029;-65
2023/04/04 05:39:48;;;;;;;5.03;2.03;;;0.30;99.90;;;;;;5032042;28;20025;-65
2023/04/04 05:42:15;;;;;;;5.50;1.55;;;0.40;99.90;;;;;;5038414;28;20437;-65
2023/04/04 05:44:46;;;;;;;5.78;1.70;;;0.40;99.90;;;;;;5031019;28;20931;-65
2023/04/04 05:47:12;;;;;;;6.68;1.90;;;0.50;99.90;;;;;;5034351;28;20120;-65
2023/04/04 05:49:42;;;;;;;5.38;1.75;;;0.50;99.90;;;;;;5030609;28;20037;-65
2023/04/04 05:52:09;;;;;;;4.07;2.40;;;0.60;99.90;;;;;;5034801;28;20539;-65
2023/04/04 05:54:36;;;;;;;4.20;1.55;;;0.70;99.90;;;;;;5035767;28;20029;-65
2023/04/04 05:57:09;;;;;;;3.03;1.67;;;0.80;99.90;;;;;;5039404;28;20025;-65
2023/04/04 05:59:46;;;;;;;3.80;1.70;;;0.90;99.90;;;;;;5029555;28;20029;-65
2023/04/04 06:02:14;;;;;;;2.25;1.73;;;1.00;99.90;;;;;;5038813;28;20025;-65
2023/04/04 06:04:45;;;;;;;6.32;1.67;;;1.20;99.90;;;;;;5036340;28;20127;-65
2023/04/04 06:07:15;;;;;;;4.57;1.70;;;1.40;99.90;;;;;;5037020;28;20665;-65
2023/04/04 06:09:42;;;;;;;5.05;2.17;;;1.70;99.90;;;;;;5037756;28;20033;-65
2023/04/04 06:12:08;;;;;;;6.40;2.15;;;1.90;99.90;;;;;;5040527;28;20431;-65
2023/04/04 06:14:37;;;;;;;5.00;1.90;;;2.20;99.90;;;;;;5034776;28;20552;-65
2023/04/04 06:17:05;;;;;;;3.83;1.98;;;2.50;99.90;;;;;;5045385;28;20512;-65
2023/04/04 06:19:31;;;;;;;3.80;2.35;;;2.90;99.50;;;;;;5034138;28;20025;-65
2023/04/04 06:21:57;;;;;;;4.30;1.73;;;3.40;98.10;;;;;;5039417;28;20116;-64
2023/04/04 06:24:24;;;;;;;3.97;1.80;;;3.70;96.20;;;;;;5033551;28;20029;-64
2023/04/04 06:26:51;;;;;;;5.97;2.47;;;3.70;95.40;;;;;;5036282;28;20025;-64
2023/04/04 06:29:20;;;;;;;6.10;2.47;;;3.70;95.10;;;;;;5025828;28;20530;-64
2023/04/04 06:31:46;;;;;;;6.25;2.08;;;3.60;95.10;;;;;;5028565;28;20032;-64
2023/04/04 06:34:20;;;;;;;3.47;1.88;;;3.60;94.80;;;;;;5023339;28;20025;-64
2023/04/04 06:36:55;;;;;;;3.05;1.80;;;3.50;95.00;;;;;;5032102;28;20027;-64
2023/04/04 06:39:23;;;;;;;4.57;1.83;;;3.50;95.30;;;;;;5040524;28;20106;-65
2023/04/04 06:41:51;;;;;;;5.18;2.13;;;3.50;95.80;;;;;;5034459;28;20338;-64
2023/04/04 06:44:22;;;;;;;3.47;1.63;;;3.60;95.90;;;;;;5038766;28;20040;-65
2023/04/04 06:46:49;;;;;;;10.40;2.58;;;4.10;96.60;;;;;;5040239;28;20028;-64
2023/04/04 06:49:15;;;;;;;6.15;1.50;;;5.00;95.20;;;;;;5027427;28;20044;-65
2023/04/04 06:51:42;;;;;;;6.45;1.88;;;6.00;93.00;;;;;;5038517;28;20021;-64
2023/04/04 06:54:08;;;;;;;6.45;1.50;;;6.60;90.30;;;;;;5031315;28;20083;-65
2023/04/04 06:56:35;;;;;;;3.97;1.73;;;6.80;87.80;;;;;;5041482;28;20036;-65
2023/04/04 06:59:01;;;;;;;2.97;1.50;;;7.00;86.00;;;;;;5031577;28;20040;-64
2023/04/04 07:01:27;;;;;;;5.30;1.50;;;7.10;84.50;;;;;;5036553;28;20082;-65
2023/04/04 07:03:53;;;;;;;2.92;1.63;;;7.70;83.40;;;;;;5030768;28;20698;-65
2023/04/04 07:06:22;;;;;;;3.63;1.73;;;8.30;78.20;;;;;;5041051;28;20064;-65
2023/04/04 07:08:49;;;;;;;3.58;1.70;;;8.90;75.20;;;;;;5037616;28;20652;-65
2023/04/04 07:11:15;;;;;;;5.18;1.80;;;9.40;73.30;;;;;;5039347;28;20120;-65
2023/04/04 07:13:41;;;;;;;3.75;1.38;;;10.00;71.10;;;;;;5042132;28;20032;-65
2023/04/04 07:16:07;;;;;;;4.95;1.63;;;10.50;67.00;;;;;;5039774;28;20040;-65
2023/04/04 07:18:32;;;;;;;2.22;1.35;;;10.90;65.00;;;;;;5040910;28;20033;-66
2023/04/04 07:20:58;;;;;;;2.83;1.60;;;11.20;63.10;;;;;;5040890;28;20025;-65
2023/04/04 07:23:24;;;;;;;5.05;1.23;;;11.80;61.00;;;;;;5045556;28;20033;-65
2023/04/04 07:25:50;;;;;;;2.67;1.10;;;12.30;57.00;;;;;;5044400;28;20021;-66
2023/04/04 07:28:16;;;;;;;3.50;1.20;;;12.20;56.20;;;;;;5042107;28;20583;-65
2023/04/04 07:30:42;;;;;;;3.55;1.30;;;11.90;54.20;;;;;;5043725;28;20049;-66
2023/04/04 07:33:08;;;;;;;5.18;1.00;;;11.60;55.40;;;;;;5043594;28;20226;-65
2023/04/04 07:35:34;;;;;;;2.42;1.55;;;11.40;54.90;;;;;;5044961;28;20590;-66
2023/04/04 07:38:00;;;;;;;3.65;1.17;;;11.40;55.30;;;;;;5045857;28;20446;-66
2023/04/04 07:40:26;;;;;;;4.22;1.40;;;11.50;55.90;;;;;;5046955;28;20059;-66
2023/04/04 07:42:53;;;;;;;3.97;1.63;;;11.30;55.10;;;;;;5045688;28;20033;-65
2023/04/04 07:45:20;;;;;;;2.47;1.25;;;11.10;54.70;;;;;;5040170;28;20036;-65
2023/04/04 07:47:46;;;;;;;5.47;1.58;;;11.00;57.20;;;;;;5039793;28;20148;-66
2023/04/04 07:50:13;;;;;;;5.25;1.30;;;11.00;56.80;;;;;;5040211;28;20045;-65
2023/04/04 07:52:39;;;;;;;3.67;1.38;;;11.10;55.20;;;;;;5038279;28;20029;-66
2023/04/04 07:55:06;;;;;;;5.28;1.30;;;11.20;57.10;;;;;;5037994;28;20045;-66
2023/04/04 07:57:38;;;;;;;5.05;1.52;;;11.70;55.80;;;;;;5038930;28;20033;-66
2023/04/04 08:00:08;;;;;;;3.75;1.30;;;12.00;55.30;;;;;;5037898;28;20608;-66
2023/04/04 08:02:39;;;;;;;4.80;1.30;;;12.20;51.70;;;;;;5038762;28;20709;-66
2023/04/04 08:05:05;;;;;;;3.03;0.98;;;12.30;51.20;;;;;;5038756;28;20037;-66
2023/04/04 08:07:31;;;;;;;2.45;0.95;;;12.40;51.30;;;;;;5041392;28;20032;-66
2023/04/04 08:09:57;;;;;;;2.90;1.00;;;12.30;51.20;;;;;;5041160;28;20024;-66
2023/04/04 08:12:23;;;;;;;4.47;1.23;;;12.40;52.80;;;;;;5039166;28;20032;-66
2023/04/04 08:14:48;;;;;;;3.42;1.13;;;12.60;52.10;;;;;;5045363;28;20041;-66
2023/04/04 08:17:17;;;;;;;1.35;1.05;;;12.90;52.30;;;;;;5039876;28;20036;-66
2023/04/04 08:19:44;;;;;;;4.55;2.05;;;13.20;50.70;;;;;;5040373;28;20039;-66
2023/04/04 08:22:10;;;;;;;2.60;1.20;;;13.70;50.70;;;;;;5046398;28;20041;-65
2023/04/04 08:24:35;;;;;;;3.10;0.70;;;14.00;49.20;;;;;;5040404;28;20111;-65
2023/04/04 08:27:01;;;;;;;3.40;1.08;;;14.30;47.00;;;;;;5040860;28;20036;-66
2023/04/04 08:29:28;;;;;;;6.65;1.27;;;14.50;47.50;;;;;;5044919;28;20039;-66
2023/04/04 08:31:54;;;;;;;5.88;1.10;;;14.30;46.70;;;;;;5040609;28;20124;-66
2023/04/04 08:34:22;;;;;;;3.50;1.08;;;13.90;46.50;;;;;;5042164;28;20118;-66
2023/04/04 08:36:48;;;;;;;2.83;1.08;;;13.80;48.90;;;;;;5040507;28;20036;-66
2023/04/04 08:39:13;;;;;;;2.28;1.20;;;13.40;48.60;;;;;;5041219;28;20777;-66
2023/04/04 08:41:44;;;;;;;5.43;0.85;;;13.00;48.10;;;;;;5039683;28;20035;-65
2023/04/04 08:44:16;;;;;;;1.67;0.82;;;12.50;48.90;;;;;;5039759;28;20779;-66
2023/04/04 08:46:44;;;;;;;1.90;1.00;;;12.50;50.20;;;;;;5040417;28;20830;-66
2023/04/04 08:49:13;;;;;;;1.58;0.55;;;13.10;49.40;;;;;;5039869;28;20053;-66
2023/04/04 08:51:40;;;;;;;1.05;0.63;;;13.60;46.30;;;;;;5038433;28;20056;-66
2023/04/04 08:54:07;;;;;;;1.83;0.80;;;13.80;44.00;;;;;;5039759;28;20099;-66
2023/04/04 08:56:34;;;;;;;7.55;1.70;;;13.90;45.60;;;;;;5039626;28;20037;-66
2023/04/04 08:59:01;;;;;;;3.17;1.08;;;14.10;45.20;;;;;;5040951;28;20126;-66
2023/04/04 09:01:28;;;;;;;1.25;0.70;;;14.20;45.40;;;;;;5040013;28;20036;-66
2023/04/04 09:03:56;;;;;;;2.55;1.17;;;14.30;44.80;;;;;;5039208;28;20037;-66
2023/04/04 09:06:23;;;;;;;4.88;1.10;;;14.50;45.30;;;;;;5039231;28;20124;-66
2023/04/04 09:08:52;;;;;;;7.60;1.13;;;14.90;44.60;;;;;;5039580;28;20037;-66
2023/04/04 09:11:21;;;;;;;3.70;1.10;;;15.50;43.70;;;;;;5043416;28;20237;-66
2023/04/04 09:13:49;;;;;;;2.97;1.20;;;16.20;44.20;;;;;;5044885;28;20641;-66
2023/04/04 09:16:16;;;;;;;1.48;0.80;;;16.70;43.20;;;;;;5039292;28;20117;-66
2023/04/04 09:18:42;;;;;;;3.42;1.10;;;16.90;40.60;;;;;;5035550;28;20056;-66
2023/04/04 09:21:10;;;;;;;1.45;0.90;;;16.80;39.30;;;;;;5042038;28;20606;-66
2023/04/04 09:23:36;;;;;;;3.40;0.95;;;16.70;40.30;;;;;;5039953;28;20037;-66
2023/04/04 09:26:02;;;;;;;1.85;1.00;;;16.60;42.00;;;;;;5040081;28;20834;-66
2023/04/04 09:28:28;;;;;;;3.58;1.48;;;16.30;41.70;;;;;;5038846;28;20036;-66
2023/04/04 09:30:54;;;;;;;3.28;1.10;;;15.80;41.40;;;;;;5038287;28;20021;-66
2023/04/04 09:33:22;;;;;;;1.50;1.00;;;15.40;43.80;;;;;;5038798;28;20448;-66
2023/04/04 09:36:01;;;;;;;1.92;0.90;;;14.90;41.90;;;;;;5039179;28;20025;-66
2023/04/04 09:38:28;;;;;;;3.67;1.00;;;14.20;44.30;;;;;;5039497;28;20037;-66
2023/04/04 09:40:54;;;;;;;2.80;1.00;;;13.70;46.00;;;;;;5039448;28;20068;-66
2023/04/04 09:43:24;;;;;;;2.65;1.20;;;13.30;44.10;;;;;;5036560;28;20051;-66
2023/04/04 09:45:51;;;;;;;1.40;0.93;;;12.80;45.90;;;;;;5043119;28;20150;-66
2023/04/04 09:48:31;;;;;;;5.50;1.38;;;12.40;47.90;;;;;;5040011;28;20492;-66
2023/04/04 09:51:00;;;;;;;1.50;0.90;;;12.00;48.90;;;;;;5037494;28;20040;-66
2023/04/04 09:53:27;;;;;;;2.35;0.90;;;11.90;48.80;;;;;;5038116;28;20040;-66
2023/04/04 09:55:54;;;;;;;2.60;1.02;;;11.80;48.60;;;;;;5037817;28;20044;-66
2023/04/04 09:58:26;;;;;;;1.17;0.70;;;12.10;49.50;;;;;;5037584;28;20037;-66
2023/04/04 10:00:55;;;;;;;1.75;1.10;;;13.10;50.30;;;;;;5037261;28;20078;-65
2023/04/04 10:03:23;;;;;;;4.28;0.70;;;14.30;43.80;;;;;;5039315;28;20047;-66
2023/04/04 10:06:03;;;;;;;1.35;0.90;;;15.00;42.20;;;;;;5039098;28;20067;-66
2023/04/04 10:08:29;;;;;;;1.20;0.70;;;15.20;43.10;;;;;;5043892;28;20067;-66
2023/04/04 10:10:57;;;;;;;1.38;0.80;;;15.40;42.70;;;;;;5040752;28;20028;-66
2023/04/04 10:13:26;;;;;;;2.60;0.98;;;15.50;43.10;;;;;;5042108;28;20028;-66
2023/04/04 10:15:56;;;;;;;3.22;1.00;;;15.20;43.30;;;;;;5042493;28;20115;-66
2023/04/04 10:18:27;;;;;;;3.70;1.05;;;14.50;43.60;;;;;;5043110;28;20037;-66
2023/04/04 10:20:55;;;;;;;2.63;0.98;;;13.70;45.40;;;;;;5042635;28;20025;-66
2023/04/04 10:23:25;;;;;;;2.00;0.90;;;13.10;45.50;;;;;;5042574;28;20040;-66
2023/04/04 10:25:52;;;;;;;2.90;1.27;;;12.70;46.20;;;;;;5042375;28;20040;-66
2023/04/04 10:28:19;;;;;;;2.95;0.82;;;12.20;48.20;;;;;;5042496;28;20033;-66
2023/04/04 10:31:03;;;;;;;2.40;1.20;;;12.00;49.90;;;;;;5042262;28;20066;-66
2023/04/04 10:33:47;;;;;;;3.85;0.90;;;11.90;51.20;;;;;;5041266;28;20036;-66
2023/04/04 10:36:20;;;;;;;2.83;1.05;;;12.30;51.50;;;;;;5042645;28;20436;-66
2023/04/04 10:39:03;;;;;;;2.33;1.17;;;12.90;47.60;;;;;;5043198;28;20025;-66
2023/04/04 10:41:31;;;;;;;5.25;0.88;;;13.00;46.10;;;;;;5042705;28;20135;-66
2023/04/04 10:44:05;;;;;;;1.80;0.70;;;12.80;45.00;;;;;;5041928;28;20025;-66
2023/04/04 10:46:33;;;;;;;3.00;0.90;;;12.50;46.20;;;;;;5041560;28;20047;-66
2023/04/04 10:49:00;;;;;;;5.32;1.15;;;12.10;47.20;;;;;;5039084;28;20040;-66
2023/04/04 10:51:26;;;;;;;2.25;0.60;;;11.60;48.60;;;;;;5043700;28;20040;-66
2023/04/04 10:53:52;;;;;;;1.67;0.85;;;11.30;48.60;;;;;;5044297;28;20138;-66
2023/04/04 10:56:18;;;;;;;1.15;0.60;;;11.30;50.10;;;;;;5043392;28;20048;-66
2023/04/04 10:58:44;;;;;;;0.82;0.55;;;11.80;48.20;;;;;;5044261;28;20032;-66
2023/04/04 11:01:15;;;;;;;1.05;0.55;;;12.20;48.20;;;;;;5040989;28;20488;-66
2023/04/04 11:04:20;;;;;;;1.13;0.75;;;12.50;47.80;;;;;;5047269;28;20693;-66
2023/04/04 11:07:10;;;;;;;2.13;0.88;;;12.30;47.70;;;;;;5043386;28;20037;-66
2023/04/04 11:09:53;;;;;;;1.55;0.70;;;12.00;47.50;;;;;;5038939;28;20037;-64
2023/04/04 11:12:22;;;;;;;1.80;0.57;;;11.80;47.70;;;;;;5042934;28;20726;-66
2023/04/04 11:15:01;;;;;;;1.83;0.60;;;11.40;49.30;;;;;;5040462;28;20124;-66
2023/04/04 11:17:48;;;;;;;0.82;0.70;;;11.40;49.00;;;;;;5039829;28;20094;-66
2023/04/04 11:20:16;;;;;;;3.65;0.60;;;11.40;49.30;;;;;;5039677;28;20481;-66
2023/04/04 11:22:42;;;;;;;1.98;0.70;;;11.50;50.00;;;;;;5043064;28;20040;-66
2023/04/04 11:25:26;;;;;;;2.58;0.57;;;11.60;49.30;;;;;;5040923;28;20118;-66
2023/04/04 11:27:56;;;;;;;4.43;0.80;;;11.60;50.10;;;;;;5041387;28;20051;-66
2023/04/04 11:30:22;;;;;;;1.98;0.55;;;11.40;49.50;;;;;;5042243;28;20070;-67
2023/04/04 11:32:49;;;;;;;1.15;0.60;;;11.30;48.40;;;;;;5042408;28;20682;-66
2023/04/04 11:35:18;;;;;;;4.13;0.95;;;11.20;48.30;;;;;;5042593;28;20044;-66
2023/04/04 11:37:49;;;;;;;1.05;0.57;;;11.10;50.00;;;;;;5040316;28;20131;-66
2023/04/04 11:40:16;;;;;;;4.85;1.00;;;10.90;48.30;;;;;;5041174;28;20076;-66
2023/04/04 11:42:42;;;;;;;2.33;1.08;;;10.70;48.20;;;;;;5044409;28;20036;-66
2023/04/04 11:45:10;;;;;;;4.10;0.73;;;10.40;48.00;;;;;;5040365;28;20062;-66
2023/04/04 11:47:38;;;;;;;2.90;0.70;;;10.40;50.70;;;;;;5042900;28;20036;-66
2023/04/04 11:50:09;;;;;;;1.42;0.73;;;10.50;52.40;;;;;;5041710;28;20512;-66
2023/04/04 11:52:35;;;;;;;2.22;0.75;;;10.30;51.00;;;;;;5044335;28;20082;-66
2023/04/04 11:55:01;;;;;;;5.05;0.80;;;10.40;51.10;;;;;;5043076;28;20739;-66
2023/04/04 11:57:27;;;;;;;3.17;0.93;;;10.50;52.00;;;;;;5046760;28;20404;-66
2023/04/04 11:59:52;;;;;;;2.67;0.68;;;10.60;49.90;;;;;;5046319;28;20211;-66
2023/04/04 12:02:22;;;;;;;2.58;1.02;;;10.60;50.40;;;;;;5044469;28;20847;-65
2023/04/04 12:04:50;;;;;;;1.77;0.80;;;10.70;51.30;;;;;;5038749;28;20130;-66
2023/04/04 12:07:16;;;;;;;2.83;1.02;;;10.90;52.70;;;;;;5039273;28;20041;-66
2023/04/04 12:09:43;;;;;;;2.28;0.60;;;10.90;50.30;;;;;;5039682;28;20036;-66
2023/04/04 12:12:15;;;;;;;3.45;0.75;;;11.00;48.90;;;;;;5039004;28;20025;-66
2023/04/04 12:14:42;;;;;;;3.63;0.95;;;11.00;48.30;;;;;;5039922;28;20051;-66
2023/04/04 12:17:07;;;;;;;1.23;0.75;;;11.00;49.70;;;;;;5038317;28;20024;-65
2023/04/04 12:19:38;;;;;;;1.40;0.77;;;11.10;50.10;;;;;;5039634;28;20159;-66
2023/04/04 12:22:04;;;;;;;2.25;1.08;;;11.30;50.20;;;;;;5037947;28;20134;-66
2023/04/04 12:24:31;;;;;;;0.60;0.60;;;11.20;46.60;;;;;;5039720;28;20032;-65
2023/04/04 12:26:57;;;;;;;3.00;0.85;;;11.20;47.50;;;;;;5039628;28;20037;-66
2023/04/04 12:29:26;;;;;;;0.90;0.80;;;11.30;48.80;;;;;;5038096;28;20033;-66
2023/04/04 12:31:53;;;;;;;1.38;0.63;;;11.30;48.20;;;;;;5042703;28;20055;-66
2023/04/04 12:34:29;;;;;;;0.82;0.63;;;11.40;49.00;;;;;;5040709;28;20087;-66
2023/04/04 12:36:56;;;;;;;2.50;0.75;;;11.40;48.00;;;;;;5036663;28;20032;-66
2023/04/04 12:39:26;;;;;;;3.20;0.75;;;11.40;46.50;;;;;;5037968;28;20841;-65
2023/04/04 12:41:58;;;;;;;1.83;0.80;;;11.30;47.70;;;;;;5042074;28;20524;-66
2023/04/04 12:44:38;;;;;;;1.38;0.85;;;11.40;45.80;;;;;;5035370;28;20033;-66
2023/04/04 12:47:06;;;;;;;1.27;0.60;;;11.40;45.50;;;;;;5041024;28;20040;-66
2023/04/04 12:49:38;;;;;;;3.20;1.35;;;11.50;44.90;;;;;;5035746;28;20332;-66
2023/04/04 12:52:06;;;;;;;1.85;0.65;;;11.40;46.00;;;;;;5034524;28;20044;-66
2023/04/04 12:54:38;;;;;;;2.45;0.60;;;11.30;47.50;;;;;;5039116;28;20079;-66
2023/04/04 12:57:06;;;;;;;0.77;0.60;;;11.40;48.00;;;;;;5040325;28;20028;-66
2023/04/04 12:59:34;;;;;;;1.45;0.95;;;11.40;47.00;;;;;;5038864;28;20075;-66